Tiempo atmosférico en la estación meteorológica de Campos, Can Sion, Illes Balears (40 m.)



Fecha
DESCASC
Temp. máxima en grados centígrados (hora)
DESCASC
Temp. mínima en grados centígrados (hora)
DESCASC
Temp. media en grados centígrados
DESCASC
Racha de viento máxima en m/sg (hora)
DESCASC
Velocidad máxima media en intervalos de 10 minutos(hora)
DESCASC
Precipitaciones diarias en mm
DESCASC
Precipitaciones de 00:00 a 06:00 en mm
DESCASC
Precipitaciones de 06:00 a 12:00 en mm
DESCASC
Precipitaciones de 12:00 a 18:00 en mm
DESCASC
Precipitaciones de 18:00 a 24:00 en mm
DESCASC
24-01-2021 18.1 (11:20) 4.1 (22:00) 11.1 16.94 (05:10) 8.61 (05:10) 0 0 0 0 0
23-01-2021 14.8 (12:50) 4.3 (03:20) 9.6 16.67 (15:20) 8.89 (15:40) 0 0 0 0 0
22-01-2021 17 (13:50) 8.7 (23:50) 12.8 20 (11:40) 11.11 (11:40) 2 0 2 0 0
21-01-2021 17.3 (13:30) 12.1 (00:00) 14.7 12.22 (12:30) 6.94 (14:30) 0 0 0 0 0
20-01-2021 15.8 (12:50) 0.8 (00:00) 8.3 9.44 (15:10) 5.56 (15:10) 0 0 0 0 0
19-01-2021 15.3 (15:20) -0.1 (00:00) 7.6 6.94 (15:30) 3.89 (13:10) 0 0 0 0 0
18-01-2021 14.9 (12:00) 0.5 (00:00) 7.7 4.44 (15:50) 2.5 (15:20) 0 0 0 0 0
17-01-2021 17.1 (14:30) 0.4 (00:00) 8.8 11.11 (12:40) 6.39 (12:50) 0 0 0 0 0
16-01-2021 15.2 (15:30) 0.4 (00:00) 7.8 7.78 (12:00) 3.61 (12:30) 2.4 0 2.4 0 0
15-01-2021 15.2 (13:00) -1.7 (-00:0) 6.7 7.5 (14:40) 4.17 (14:40) 0 0 0 0 0
14-01-2021 15.1 (14:40) -1.8 (06:30) 6.7 7.22 (16:20) 4.17 (15:30) 0 0 0 0 0
13-01-2021 16.3 (14:30) -2.5 (-00:0) 6.9 5.28 (16:10) 3.33 (16:20) 0.2 0 0.2 0 0
12-01-2021 13.5 (13:30) -2.3 (-00:0) 5.6 8.33 (14:20) 4.17 (15:00) 0 0 0 0 0
11-01-2021 10.6 (13:00) 4.3 (00:00) 7.5 10 (01:00) 3.89 (00:30) 0.2 0 0.2 0 0
10-01-2021 13.1 (11:50) 3.3 (05:40) 8.2 9.17 (11:30) 5 (11:20) 0 0 0 0 0
09-01-2021 17.4 (13:20) 8.1 (00:00) 12.8 10.56 (20:20) 5.28 (22:10) 0.8 0.6 0.2 0 0
08-01-2021 10.5 (12:40) 6.1 (00:00) 8.3 11.67 (14:20) 5.28 (13:20) 9.8 3.8 0.6 2.2 3.2
07-01-2021 9 (12:50) 3.8 (00:00) 6.4 6.94 (22:10) 3.33 (22:10) 4.4 0.8 0.4 1.4 1.8
06-01-2021 13.5 (14:10) -3.7 (-00:0) 4.9 4.72 (15:50) 1.67 (13:40) 0.2 0 0.2 0 0
05-01-2021 12.1 (13:30) -2.4 (-00:0) 4.9 8.33 (13:10) 4.17 (13:00) 0.6 0 0.6 0 0
04-01-2021 12.9 (12:40) -0.5 (-00:0) 6.2 10 (15:10) 6.39 (14:40) 1.4 0 1.4 0 0
03-01-2021 12 (13:30) -0.9 (-00:0) 5.6 6.39 (13:10) 3.33 (13:40) 0.2 0 0.2 0 0
02-01-2021 10 (12:50) -0.1 (00:00) 4.9 9.72 (09:10) 5 (17:20) 1.8 0 1.2 0.6 0
01-01-2021 13.4 (14:30) 6.3 (00:00) 9.8 11.94 (12:00) 5 (12:00) 8.2 0 1.4 2 4.8
31-12-2020 14.1 (12:10) 0.8 (00:00) 7.5 9.17 (14:10) 5 (14:10) 2 2 0 0 0
30-12-2020 13.7 (14:20) 0.1 (00:00) 6.9 13.61 (13:10) 7.22 (13:10) 0 0 0 0 0
29-12-2020 14.9 (14:00) 1.9 (00:00) 8.4 9.72 (16:50) 5.56 (14:50) 0.8 0 0 0 0.8
28-12-2020 16 (14:50) 10 (00:00) 13 18.33 (09:00) 10.56 (07:50) 0 0 0 0 0
27-12-2020 13.9 (14:30) -3 (-00:0) 5.4 15 (22:30) 8.06 (21:00) 0 0 0 0 0
26-12-2020 11.7 (14:10) -2 (-00:0) 4.8 7.5 (13:30) 3.33 (15:30) 0.2 0 0 0.2 0

Gráficas

Temp. máximas Temp. mínimas Temp. medias Precipitaciones Rachas de viento máximas Velocidades máximas media en intervalos de 10 minutos

Datos horarios

Fecha y hora oficial Temperatura (ºC) Velocidad del viento (km/h) Dirección del viento Racha (km/h) Dirección de racha Precipitación (mm) Presión (hPa) Tendencia (hPa) Humedad (%)
2021-01-24 23:00:00 5.1 3 Nordeste 10 Sur 0 -- -- 93
2021-01-24 22:00:00 4.1 2 Este 6 Este 0 -- -- 87
2021-01-24 21:00:00 5.6 5 Este 7 Este 0 -- -- 85
2021-01-24 20:00:00 6.9 3 Sudeste 5 Sur 0 -- -- 76
2021-01-24 19:00:00 10.9 3 Sudoeste 16 Oeste 0 -- -- 62
2021-01-24 18:00:00 13.2 9 Noroeste 26 Noroeste 0 -- -- 54
2021-01-24 17:00:00 15.4 12 Noroeste 42 Noroeste 0 -- -- 51
2021-01-24 16:00:00 15.8 20 Oeste 40 Oeste 0 -- -- 48
2021-01-24 15:00:00 16.5 17 Oeste 38 Oeste 0 -- -- 52
2021-01-24 14:00:00 16.5 20 Noroeste 47 Oeste 0 -- -- 51
2021-01-24 13:00:00 16.3 22 Oeste 48 Oeste 0 -- -- 51
2021-01-24 12:00:00 16.3 23 Noroeste 58 Noroeste 0 -- -- 50
2021-01-24 11:00:00 17.6 19 Oeste 46 Noroeste 0 -- -- 50
2021-01-24 10:00:00 17.3 10 Oeste 22 Oeste 0 -- -- 59
2021-01-24 09:00:00 15 5 Noroeste 36 Oeste 0 -- -- 78
2021-01-24 08:00:00 15.1 21 Oeste 41 Oeste 0 -- -- 77
2021-01-24 07:00:00 14.9 17 Oeste 46 Sudoeste 0 -- -- 81
2021-01-24 06:00:00 15 27 Oeste 61 Sudoeste 0 -- -- 81
2021-01-24 05:00:00 15.3 30 Sudoeste 57 Sudoeste 0 -- -- 78
2021-01-24 04:00:00 15.1 27 Sudoeste 55 Sudoeste 0 -- -- 77
2021-01-24 03:00:00 15.1 25 Sudoeste 49 Sudoeste 0 -- -- 74
2021-01-24 02:00:00 14.4 20 Sudoeste 42 Oeste 0 -- -- 79
2021-01-24 01:00:00 13.8 21 Sudoeste 38 Sudoeste 0 -- -- 85
2021-01-24 00:00:00 13.8 19 Sudoeste 42 Sudoeste 0 -- -- 80
2021-01-23 23:00:00 13.8 21 Sudoeste 42 Sudoeste 0 -- -- 76
2021-01-23 22:00:00 13.6 24 Sudoeste 50 Oeste 0 -- -- 69
2021-01-23 21:00:00 12.9 13 Sudoeste 29 Oeste 0 -- -- 72
2021-01-23 20:00:00 12.9 14 Sudoeste 32 Sudoeste 0 -- -- 71
2021-01-23 19:00:00 13 18 Sudoeste 39 Oeste 0 -- -- 65
2021-01-23 18:00:00 12.7 20 Oeste 49 Oeste 0 -- -- 67
2021-01-23 17:00:00 13.7 30 Oeste 57 Oeste 0 -- -- 62
2021-01-23 16:00:00 13.4 28 Oeste 60 Oeste 0 -- -- 65
2021-01-23 15:00:00 13.9 26 Oeste 51 Sudoeste 0 -- -- 63
2021-01-23 14:00:00 14.1 28 Oeste 55 Oeste 0 -- -- 63
2021-01-23 13:00:00 14.6 26 Oeste 45 Oeste 0 -- -- 61
2021-01-23 12:00:00 14.3 20 Oeste 42 Oeste 0 -- -- 63
2021-01-23 11:00:00 14.1 18 Oeste 36 Noroeste 0 -- -- 69
2021-01-23 10:00:00 13.1 16 Oeste 33 Oeste 0 -- -- 73
2021-01-23 09:00:00 11.6 14 Oeste 32 Oeste 0 -- -- 77
2021-01-23 08:00:00 9.8 4 Sudoeste 24 Oeste 0 -- -- 83
2021-01-23 07:00:00 10.5 12 Oeste 28 Oeste 0 -- -- 82
2021-01-23 06:00:00 10.1 10 Oeste 20 Oeste 0 -- -- 86
2021-01-23 05:00:00 6.7 5 Oeste 12 Sudoeste 0 -- -- 98
2021-01-23 04:00:00 4.8 5 Sudoeste 9 Sudoeste 0 -- -- 95
2021-01-23 03:00:00 4.9 4 Sudeste 8 Oeste 0 -- -- 87
2021-01-23 02:00:00 8.2 4 Oeste 13 Oeste 0 -- -- 77
2021-01-23 01:00:00 8.1 4 Sudoeste 12 Noroeste 0 -- -- 79
2021-01-23 00:00:00 8.7 7 Oeste 10 Oeste 0 -- -- 83
2021-01-22 23:00:00 11 3 Noroeste 22 Oeste 0 -- -- 83
2021-01-22 22:00:00 12 12 Sudoeste 22 Oeste 0 -- -- 81
2021-01-22 21:00:00 12.8 17 Oeste 43 Oeste 0 -- -- 79
2021-01-22 20:00:00 13.1 20 Oeste 41 Oeste 0 -- -- 74
2021-01-22 19:00:00 13.5 22 Oeste 48 Oeste 0 -- -- 73
2021-01-22 18:00:00 14.2 30 Oeste 55 Oeste 0 -- -- 65
2021-01-22 17:00:00 14.6 27 Oeste 56 Oeste 0 -- -- 65
2021-01-22 16:00:00 15 27 Oeste 64 Sudoeste 0 -- -- 64
2021-01-22 15:00:00 15.3 26 Oeste 59 Sudoeste 0 -- -- 67
2021-01-22 14:00:00 17 33 Oeste 65 Sudoeste 0 -- -- 60
2021-01-22 13:00:00 16 27 Oeste 52 Oeste 0 -- -- 71
2021-01-22 12:00:00 11.4 22 Sudoeste 72 Sudoeste 2 -- -- 90
2021-01-22 11:00:00 16 31 Sudoeste 54 Sudoeste 0 -- -- 86
2021-01-22 10:00:00 15.4 26 Sudoeste 48 Sudoeste 0 -- -- 85
2021-01-22 09:00:00 14.4 19 Sudoeste 39 Sudoeste 0 -- -- 91
2021-01-22 08:00:00 14.3 18 Sudoeste 34 Sudoeste 0 -- -- 90
2021-01-22 07:00:00 14 12 Sudoeste 37 Sudoeste 0 -- -- 93
2021-01-22 06:00:00 14.1 18 Sudoeste 34 Sudoeste 0 -- -- 92
2021-01-22 05:00:00 14.1 15 Sudoeste 32 Sudoeste 0 -- -- 91
2021-01-22 04:00:00 13.9 16 Sudoeste 27 Sudoeste 0 -- -- 91
2021-01-22 03:00:00 13.4 8 Sudoeste 22 Sudoeste 0 -- -- 92
2021-01-22 02:00:00 13.7 13 Sudoeste 30 Sudoeste 0 -- -- 90
2021-01-22 01:00:00 13.7 11 Sudoeste 26 Sudoeste 0 -- -- 92
2021-01-22 00:00:00 13.9 14 Sudoeste 28 Sudoeste 0 -- -- 89
2021-01-21 23:00:00 14.1 16 Sudoeste 29 Sudoeste 0 -- -- 89
2021-01-21 22:00:00 14 17 Sudoeste 28 Sudoeste 0 -- -- 88
2021-01-21 21:00:00 13.7 14 Sudoeste 35 Sudoeste 0 -- -- 89
2021-01-21 20:00:00 13.7 16 Sudoeste 32 Sudoeste 0 -- -- 89
2021-01-21 19:00:00 14.1 18 Sudoeste 36 Sudoeste 0 -- -- 86
2021-01-21 18:00:00 14.1 13 Sudoeste 28 Oeste 0 -- -- 83
2021-01-21 17:00:00 15.1 13 Sudoeste 34 Sudoeste 0 -- -- 77
2021-01-21 16:00:00 16.5 20 Sudoeste 37 Sudoeste 0 -- -- 70
2021-01-21 15:00:00 16.8 23 Sudoeste 43 Sudoeste 0 -- -- 72
2021-01-21 14:00:00 17.2 22 Oeste 42 Sudoeste 0 -- -- 63
2021-01-21 13:00:00 16.8 23 Oeste 44 Oeste 0 -- -- 66
2021-01-21 12:00:00 16.6 18 Oeste 36 Sudoeste 0 -- -- 70
2021-01-21 11:00:00 15.4 20 Oeste 39 Sudoeste 0 -- -- 73
2021-01-21 10:00:00 15.2 18 Sudoeste 36 Sudoeste 0 -- -- 78
2021-01-21 09:00:00 13.3 9 Sudoeste 21 Sudoeste 0 -- -- 91
2021-01-21 08:00:00 12.4 9 Sudoeste 19 Sudoeste 0 -- -- 95
2021-01-21 07:00:00 12.4 7 Sudoeste 16 Sudoeste 0 -- -- 95
2021-01-21 06:00:00 12.8 8 Sudoeste 17 Sudoeste 0 -- -- 93
2021-01-21 05:00:00 13.7 8 Sudoeste 21 Sudoeste 0 -- -- 91
2021-01-21 04:00:00 13.8 12 Sudoeste 20 Sudoeste 0 -- -- 91
2021-01-21 03:00:00 13.7 8 Sudoeste 17 Sudoeste 0 -- -- 91
2021-01-21 02:00:00 13.7 8 Sudoeste 21 Sudoeste 0 -- -- 91
2021-01-21 01:00:00 13.6 7 Sudoeste 19 Sudoeste 0 -- -- 92
2021-01-21 00:00:00 13.7 9 Sudoeste 18 Sudoeste 0 -- -- 91
2021-01-20 23:00:00 13.5 9 Sudoeste 19 Sudoeste 0 -- -- 91
2021-01-20 22:00:00 13.5 10 Sudoeste 22 Sudoeste 0 -- -- 89
2021-01-20 21:00:00 13.1 11 Sudoeste 26 Sudoeste 0 -- -- 89
2021-01-20 20:00:00 13.1 10 Sudoeste 19 Sudoeste 0 -- -- 86
2021-01-20 19:00:00 13 10 Sudoeste 23 Sudoeste 0 -- -- 86
2021-01-20 18:00:00 12.8 10 Sudoeste 27 Sudoeste 0 -- -- 85
2021-01-20 17:00:00 13.3 14 Sudoeste 26 Sudoeste 0 -- -- 83
2021-01-20 16:00:00 14.1 13 Sudoeste 34 Sudoeste 0 -- -- 83
2021-01-20 15:00:00 14.9 19 Sudoeste 33 Sudoeste 0 -- -- 79
2021-01-20 14:00:00 14.3 13 Sudoeste 28 Sudoeste 0 -- -- 84
2021-01-20 13:00:00 15.6 15 Sudoeste 28 Sudoeste 0 -- -- 78
2021-01-20 12:00:00 15.3 9 Sudoeste 21 Sur 0 -- -- 80
2021-01-20 11:00:00 13.5 2 Sudoeste 8 Sur 0 -- -- 97
2021-01-20 10:00:00 10.7 2 Este 6 Este 0 -- -- 100
2021-01-20 09:00:00 2.5 0 Calma 5 Este 0 -- -- 100
2021-01-20 08:00:00 0.9 4 Este 5 Este 0 -- -- 98
2021-01-20 07:00:00 2.8 3 Este 5 Este 0 -- -- 99
2021-01-20 06:00:00 1.4 3 Nordeste 4 Nordeste 0 -- -- 98
2021-01-20 05:00:00 1.5 0 Calma 4 Este 0 -- -- 98
2021-01-20 04:00:00 1.2 3 Este 5 Sudeste 0 -- -- 97
2021-01-20 03:00:00 1.9 0 Calma 5 Sudeste 0 -- -- 97
2021-01-20 02:00:00 3.1 3 Sudeste 6 Sudeste 0 -- -- 96
2021-01-20 01:00:00 3.3 3 Este 5 Este 0 -- -- 97
2021-01-20 00:00:00 3.5 0 Calma 5 Este 0 -- -- 95
2021-01-19 23:00:00 4.9 3 Sudeste 5 Este 0 -- -- 95
2021-01-19 22:00:00 6 4 Sudeste 6 Sudeste 0 -- -- 92
2021-01-19 21:00:00 8.4 4 Sudeste 7 Sudeste 0 -- -- 91
2021-01-19 20:00:00 9.8 5 Sur 9 Sudeste 0 -- -- 90
2021-01-19 19:00:00 10.3 4 Sudeste 8 Sudeste 0 -- -- 87
2021-01-19 18:00:00 12.2 4 Sur 14 Sur 0 -- -- 79
2021-01-19 17:00:00 13.6 7 Sur 17 Sudoeste 0 -- -- 74
2021-01-19 16:00:00 14.4 8 Sur 25 Oeste 0 -- -- 70
2021-01-19 15:00:00 14.7 10 Sudoeste 22 Sudoeste 0 -- -- 68
2021-01-19 14:00:00 14.5 9 Sudoeste 24 Sudoeste 0 -- -- 72
2021-01-19 13:00:00 14.6 10 Sudoeste 22 Sudoeste 0 -- -- 73
2021-01-19 12:00:00 13.1 5 Oeste 16 Sudoeste 0 -- -- 83
2021-01-19 11:00:00 10.9 3 Oeste 8 Oeste 0 -- -- 95
2021-01-19 10:00:00 8.4 0 Calma 6 Este 0 -- -- 100
2021-01-19 09:00:00 2.5 3 Nordeste 5 Nordeste 0 -- -- 100
2021-01-19 08:00:00 -0.1 3 Este 5 Este 0 -- -- 98
2021-01-19 07:00:00 0.2 4 Este 6 Este 0 -- -- 98
2021-01-19 06:00:00 0.4 4 Este 5 Este 0 -- -- 99
2021-01-19 05:00:00 1.2 4 Este 6 Este 0 -- -- 97
2021-01-19 04:00:00 1.7 4 Este 6 Este 0 -- -- 98
2021-01-19 03:00:00 1.2 3 Este 6 Este 0 -- -- 96
2021-01-19 02:00:00 1.3 0 Calma 5 Este 0 -- -- 96
2021-01-19 01:00:00 1.4 4 Este 5 Este 0 -- -- 95
2021-01-19 00:00:00 2.9 0 Calma 5 Este 0 -- -- 95
2021-01-18 23:00:00 4.3 4 Este 6 Este 0 -- -- 95
2021-01-18 22:00:00 4.7 4 Este 6 Este 0 -- -- 96
2021-01-18 21:00:00 3.6 4 Este 5 Este 0 -- -- 92
2021-01-18 20:00:00 4.4 3 Este -- -- 0 -- -- 88
2021-01-18 19:00:00 7.3 0 Calma 4 Sur 0 -- -- 81
2021-01-18 18:00:00 11.5 4 Sur 13 Sudeste 0 -- -- 74
2021-01-18 17:00:00 13.2 6 Sudeste 14 Este 0 -- -- 67
2021-01-18 16:00:00 12.9 9 Este 16 Sudeste 0 -- -- 68
2021-01-18 15:00:00 13.8 6 Este 13 Sudeste 0 -- -- 65
2021-01-18 14:00:00 14.4 0 Calma 9 Oeste 0 -- -- 62
2021-01-18 13:00:00 14.5 3 Noroeste 10 Norte 0 -- -- 62
2021-01-18 12:00:00 14.9 3 Norte 12 Norte 0 -- -- 62
2021-01-18 11:00:00 12 3 Norte 6 Norte 0 -- -- 75
2021-01-18 10:00:00 6.5 3 Este 4 Este 0 -- -- 100
2021-01-18 09:00:00 2.6 2 Este 5 Este 0 -- -- 99
2021-01-18 08:00:00 0.8 4 Este 5 Nordeste 0 -- -- 96
2021-01-18 07:00:00 1.7 0 Calma 8 Nordeste 0 -- -- 95
2021-01-18 06:00:00 1.6 0 Calma 5 Nordeste 0 -- -- 93
2021-01-18 05:00:00 3.5 3 Este 8 Este 0 -- -- 93
2021-01-18 04:00:00 3.6 4 Este 8 Nordeste 0 -- -- 90
2021-01-18 03:00:00 6.2 3 Este 10 Nordeste 0 -- -- 86
2021-01-18 02:00:00 6.7 5 Nordeste 12 Nordeste 0 -- -- 88
2021-01-18 01:00:00 7.7 4 Nordeste 14 Nordeste 0 -- -- 93
2021-01-18 00:00:00 5.2 6 Norte 11 Nordeste 0 -- -- 99
2021-01-17 23:00:00 5 3 Nordeste 8 Nordeste 0 -- -- 92
2021-01-17 22:00:00 6.8 4 Este 9 Este 0 -- -- 92
2021-01-17 21:00:00 8.3 4 Nordeste 12 Oeste 0 -- -- 88
2021-01-17 20:00:00 9.9 4 Oeste 14 Oeste 0 -- -- 85
2021-01-17 19:00:00 10.5 8 Este 12 Oeste 0 -- -- 80
2021-01-17 18:00:00 13.4 10 Oeste 22 Oeste 0 -- -- 69
2021-01-17 17:00:00 16.2 6 Sudoeste 18 Oeste 0 -- -- 60
2021-01-17 16:00:00 16.8 10 Oeste 32 Oeste 0 -- -- 56
2021-01-17 15:00:00 16.8 17 Oeste 37 Sudoeste 0 -- -- 55
2021-01-17 14:00:00 16.7 21 Oeste 40 Oeste 0 -- -- 54
2021-01-17 13:00:00 16.4 21 Oeste 40 Oeste 0 -- -- 53
2021-01-17 12:00:00 15.7 20 Oeste 40 Oeste 0 -- -- 57
2021-01-17 11:00:00 15 13 Oeste 29 Oeste 0 -- -- 63
2021-01-17 10:00:00 13.3 14 Oeste 24 Sudoeste 0 -- -- 80
2021-01-17 09:00:00 10.1 7 Sudoeste 12 Sudoeste 0 -- -- 94
2021-01-17 08:00:00 9.1 5 Oeste 16 Oeste 0 -- -- 98
2021-01-17 07:00:00 8.4 5 Oeste 15 Oeste 0 -- -- 99
2021-01-17 06:00:00 8 7 Oeste 18 Oeste 0 -- -- 100
2021-01-17 05:00:00 0.4 3 Oeste 5 Sudoeste 0 -- -- 98
2021-01-17 04:00:00 0.9 3 Este 5 Este 0 -- -- 98
2021-01-17 03:00:00 1.3 4 Este 6 Este 0 -- -- 98
2021-01-17 02:00:00 0.9 4 Este 6 Este 0 -- -- 98
2021-01-17 01:00:00 0.7 3 Sudeste 5 Este 0 -- -- 96
2021-01-17 00:00:00 1.2 0 Calma 6 Este 0 -- -- 96
2021-01-16 23:00:00 1.8 3 Este 4 Este 0 -- -- 95
2021-01-16 22:00:00 2.6 0 Calma 5 Este 0 -- -- 93
2021-01-16 21:00:00 4.3 3 Sur 7 Noroeste 0 -- -- 94
2021-01-16 20:00:00 5.4 4 Oeste 9 Noroeste 0 -- -- 89
2021-01-16 19:00:00 7.9 4 Sudoeste 10 Sudoeste 0 -- -- 87
2021-01-16 18:00:00 10.3 4 Sudoeste 17 Sudoeste 0 -- -- 80
2021-01-16 17:00:00 12.7 10 Sudoeste 22 Sudoeste 0 -- -- 70
2021-01-16 16:00:00 14.3 13 Sudoeste 23 Oeste 0 -- -- 58
2021-01-16 15:00:00 14.9 5 Norte 16 Norte 0 -- -- 56
2021-01-16 14:00:00 13.9 11 Norte 27 Norte 0 -- -- 56
2021-01-16 13:00:00 13.4 12 Norte 27 Nordeste 0 -- -- 58
2021-01-16 12:00:00 12.9 11 Norte 28 Norte 0 -- -- 60
2021-01-16 11:00:00 11.7 9 Norte 19 Nordeste 0 -- -- 74
2021-01-16 10:00:00 9.8 4 Norte 12 Norte 0 -- -- 100
2021-01-16 09:00:00 7 3 Nordeste 6 Norte 1 -- -- 100
2021-01-16 08:00:00 6.1 3 Nordeste 9 Norte 1.4 -- -- 100
2021-01-16 07:00:00 3.3 0 Calma 6 Este 0 -- -- 99
2021-01-16 06:00:00 3.4 3 Este 5 Nordeste 0 -- -- 100
2021-01-16 05:00:00 1.9 4 Este 5 Este 0 -- -- 100
2021-01-16 04:00:00 1.1 2 Este 5 Este 0 -- -- 98
2021-01-16 03:00:00 0.4 0 Calma 6 Norte 0 -- -- 98
2021-01-16 02:00:00 1.1 2 Este 7 Este 0 -- -- 97
2021-01-16 01:00:00 0.6 0 Calma 5 Nordeste 0 -- -- 97
2021-01-16 00:00:00 1.9 3 Nordeste 9 Este 0 -- -- 96
2021-01-15 23:00:00 2.5 2 Nordeste 8 Nordeste 0 -- -- 96
2021-01-15 22:00:00 2.8 4 Este 6 Este 0 -- -- 94
2021-01-15 21:00:00 3.9 5 Este 7 Este 0 -- -- 94
2021-01-15 20:00:00 4.4 3 Este 8 Oeste 0 -- -- 90
2021-01-15 19:00:00 6.5 6 Sudoeste 10 Sudoeste 0 -- -- 88
2021-01-15 18:00:00 9.4 4 Oeste 8 Sudoeste 0 -- -- 78
2021-01-15 17:00:00 11.1 4 Oeste 15 Oeste 0 -- -- 73
2021-01-15 16:00:00 12.3 11 Oeste 24 Oeste 0 -- -- 65
2021-01-15 15:00:00 13.4 13 Noroeste 27 Oeste 0 -- -- 65
2021-01-15 14:00:00 13.4 8 Oeste 20 Oeste 0 -- -- 65
2021-01-15 13:00:00 15.2 10 Noroeste 20 Oeste 0 -- -- 63
2021-01-15 12:00:00 14.3 8 Oeste 13 Oeste 0 -- -- 66
2021-01-15 11:00:00 11.1 3 Norte 4 Norte 0 -- -- 84
2021-01-15 10:00:00 7 0 Calma 2 Este 0 -- -- 100
2021-01-15 09:00:00 0.4 2 Este 3 Este 0 -- -- 100
2021-01-15 08:00:00 -0.7 3 Sudeste 5 Este 0 -- -- 98
2021-01-15 07:00:00 -1.2 4 Este 6 Este 0 -- -- 99
2021-01-15 06:00:00 -1.5 4 Este 5 Este 0 -- -- 98
2021-01-15 05:00:00 -1.2 2 Norte 5 Este 0 -- -- 98
2021-01-15 04:00:00 -0.7 4 Este 6 Este 0 -- -- 98
2021-01-15 03:00:00 -0.6 3 Este 5 Noroeste 0 -- -- 98
2021-01-15 02:00:00 -0.7 3 Nordeste 4 Nordeste 0 -- -- 97
2021-01-15 01:00:00 0.3 0 Calma 8 Este 0 -- -- 96
2021-01-15 00:00:00 0.6 3 Este 8 Este 0 -- -- 96
2021-01-14 23:00:00 1.6 5 Este 9 Este 0 -- -- 97
2021-01-14 22:00:00 1.7 0 Calma 6 Sudeste 0 -- -- 93
2021-01-14 21:00:00 2.8 3 Este 6 Oeste 0 -- -- 90
2021-01-14 20:00:00 5.1 6 Sudoeste 10 Oeste 0 -- -- 92
2021-01-14 19:00:00 6.1 3 Sudoeste 8 Oeste 0 -- -- 84
2021-01-14 18:00:00 10.7 3 Sudoeste 15 Oeste 0 -- -- 75
2021-01-14 17:00:00 13.5 8 Sudoeste 26 Sudoeste 0 -- -- 67
2021-01-14 16:00:00 14.3 13 Sudoeste 23 Sudoeste 0 -- -- 64
2021-01-14 15:00:00 14.8 13 Sudoeste 23 Sudoeste 0 -- -- 62
2021-01-14 14:00:00 14.9 7 Oeste 14 Oeste 0 -- -- 61
2021-01-14 13:00:00 14.5 8 Sudoeste 15 Oeste 0 -- -- 61
2021-01-14 12:00:00 13.7 3 Oeste 9 Sudoeste 0 -- -- 72
2021-01-14 11:00:00 11.3 3 Sudoeste 5 Sudoeste 0 -- -- 82
2021-01-14 10:00:00 6.8 3 Este 5 Este 0 -- -- 100
2021-01-14 09:00:00 0.5 0 Calma 5 Este 0 -- -- 100
2021-01-14 08:00:00 -0.9 4 Este 6 Este 0 -- -- 99
2021-01-14 07:00:00 -1.2 3 Sudeste 6 Este 0 -- -- 98
2021-01-14 06:00:00 -1.3 0 Calma 6 Este 0 -- -- 97
2021-01-14 05:00:00 -1.1 2 Este 4 Este 0 -- -- 98
2021-01-14 04:00:00 -1.1 2 Este 4 Este 0 -- -- 98
2021-01-14 03:00:00 -0.5 3 Este -- -- 0 -- -- 98
2021-01-14 02:00:00 0.6 0 Calma 6 Este 0 -- -- 97
2021-01-14 01:00:00 0.3 3 Este 5 Este 0 -- -- 96
2021-01-14 00:00:00 0.5 2 Sudoeste 4 Nordeste 0 -- -- 95
2021-01-13 23:00:00 1.5 2 Nordeste 7 Este 0 -- -- 95
2021-01-13 22:00:00 2 3 Este 5 Este 0 -- -- 94
2021-01-13 21:00:00 3.1 2 Este 4 Este 0 -- -- 91
2021-01-13 20:00:00 4.9 0 Calma 5 Sudoeste 0 -- -- 88
2021-01-13 19:00:00 7.1 4 Sudoeste 6 Sudoeste 0 -- -- 83
2021-01-13 18:00:00 10.9 4 Sur 15 Sudoeste 0 -- -- 74
2021-01-13 17:00:00 13.9 9 Sudoeste 19 Sudoeste 0 -- -- 64
2021-01-13 16:00:00 15.3 10 Sudoeste 18 Sudoeste 0 -- -- 61
2021-01-13 15:00:00 16 6 Sudoeste 13 Sudoeste 0 -- -- 55
2021-01-13 14:00:00 15.9 4 Sudoeste 12 Noroeste 0 -- -- 54
2021-01-13 13:00:00 14.7 6 Oeste 18 Oeste 0 -- -- 57
2021-01-13 12:00:00 12.7 8 Oeste 18 Oeste 0 -- -- 70
2021-01-13 11:00:00 9.7 5 Oeste 8 Oeste 0 -- -- 78
2021-01-13 10:00:00 5.7 2 Noroeste 5 Este 0.2 -- -- 97
2021-01-13 09:00:00 0.6 5 Este 6 Este 0 -- -- 100
2021-01-13 08:00:00 -2.1 4 Este 5 Este 0 -- -- 98
2021-01-13 07:00:00 -2.5 0 Calma 5 Este 0 -- -- 98
2021-01-13 06:00:00 -1.9 4 Este 5 Nordeste 0 -- -- 97
2021-01-13 05:00:00 -1.1 4 Este 6 Este 0 -- -- 98
2021-01-13 04:00:00 -1.1 0 Calma 8 Norte 0 -- -- 97
2021-01-13 03:00:00 -1 3 Este 7 Este 0 -- -- 96
2021-01-13 02:00:00 -1 2 Sudeste 6 Este 0 -- -- 96
2021-01-13 01:00:00 -0.1 4 Este 10 Norte 0 -- -- 97
2021-01-13 00:00:00 -0.9 4 Sudoeste 6 Oeste 0 -- -- 95
2021-01-12 23:00:00 -0.8 2 Este 5 Sudeste 0 -- -- 94
2021-01-12 22:00:00 -0.3 0 Calma 5 Oeste 0 -- -- 92
2021-01-12 21:00:00 0.7 0 Calma 4 Oeste 0 -- -- 88
2021-01-12 20:00:00 2.7 4 Sudoeste 9 Oeste 0 -- -- 84
2021-01-12 19:00:00 4.7 2 Sudoeste 9 Sudoeste 0 -- -- 75
2021-01-12 18:00:00 8.9 4 Sudoeste 22 Oeste 0 -- -- 60
2021-01-12 17:00:00 12 12 Oeste 22 Oeste 0 -- -- 52
2021-01-12 16:00:00 13.2 9 Oeste 26 Oeste 0 -- -- 55
2021-01-12 15:00:00 13.2 15 Oeste 30 Oeste 0 -- -- 53
2021-01-12 14:00:00 13.4 15 Oeste 27 Oeste 0 -- -- 53
2021-01-12 13:00:00 13 12 Oeste 23 Oeste 0 -- -- 55
2021-01-12 12:00:00 12 13 Oeste 26 Noroeste 0 -- -- 58
2021-01-12 11:00:00 10.4 8 Oeste 15 Oeste 0 -- -- 72
2021-01-12 10:00:00 5.4 4 Sudoeste 9 Sudoeste 0 -- -- 98
2021-01-12 09:00:00 -0.3 0 Calma 6 Este 0 -- -- 100
2021-01-12 08:00:00 -2 0 Calma 5 Este 0 -- -- 97
2021-01-12 07:00:00 -1.6 4 Este 5 Este 0 -- -- 98
2021-01-12 06:00:00 -1.5 4 Este 6 Este 0 -- -- 97
2021-01-12 05:00:00 -1.2 4 Este 5 Este 0 -- -- 97
2021-01-12 04:00:00 -0.6 0 Calma 10 Oeste 0 -- -- 96
2021-01-12 03:00:00 0.2 2 Oeste 6 Sudoeste 0 -- -- 95
2021-01-12 02:00:00 0.9 2 Sudoeste 5 Sudoeste 0 -- -- 93
2021-01-12 01:00:00 2.8 0 Calma 5 Noroeste 0 -- -- 92
2021-01-12 00:00:00 5.5 3 Oeste 10 Oeste 0 -- -- 95
2021-01-11 23:00:00 5 0 Calma 2 Sudeste 0 -- -- 96
2021-01-11 22:00:00 4.6 0 Calma 3 Este 0 -- -- 94
2021-01-11 21:00:00 4.6 3 Este 3 Este 0 -- -- 89
2021-01-11 20:00:00 6.8 2 Sudoeste 5 Sudoeste 0 -- -- 87
2021-01-11 19:00:00 7.3 0 Calma 7 Norte 0 -- -- 84
2021-01-11 18:00:00 8.3 4 Norte 18 Noroeste 0 -- -- 78
2021-01-11 17:00:00 9.5 9 Norte 25 Norte 0 -- -- 71
2021-01-11 16:00:00 9.9 11 Norte 29 Nordeste 0 -- -- 69
2021-01-11 15:00:00 9.8 11 Norte 28 Norte 0 -- -- 70
2021-01-11 14:00:00 9.8 9 Norte 28 Norte 0 -- -- 72
2021-01-11 13:00:00 10.6 10 Norte 27 Norte 0 -- -- 70
2021-01-11 12:00:00 9.4 10 Norte 27 Norte 0 -- -- 74
2021-01-11 11:00:00 8.3 6 Norte 23 Norte 0 -- -- 80
2021-01-11 10:00:00 8.1 7 Norte 27 Nordeste 0 -- -- 83
2021-01-11 09:00:00 7.7 6 Norte 20 Nordeste 0 -- -- 87
2021-01-11 08:00:00 7.5 6 Norte 18 Norte 0 -- -- 92
2021-01-11 07:00:00 7.4 9 Norte 21 Norte 0.2 -- -- 95
2021-01-11 06:00:00 7.7 7 Norte 25 Nordeste 0 -- -- 93
2021-01-11 05:00:00 7.7 9 Nordeste 28 Norte 0 -- -- 92
2021-01-11 04:00:00 7.9 11 Norte 30 Nordeste 0 -- -- 91
2021-01-11 03:00:00 8.1 12 Nordeste 32 Norte 0 -- -- 91
2021-01-11 02:00:00 8.4 12 Norte 31 Nordeste 0 -- -- 92
2021-01-11 01:00:00 8.7 14 Norte 36 Nordeste 0 -- -- 94
2021-01-11 00:00:00 8.6 12 Nordeste 26 Nordeste 0 -- -- 95
2021-01-10 23:00:00 8.4 4 Norte 16 Nordeste 0 -- -- 95
2021-01-10 22:00:00 7.9 7 Norte 19 Norte 0 -- -- 95
2021-01-10 21:00:00 7.3 3 Nordeste 8 Nordeste 0 -- -- 95
2021-01-10 20:00:00 7.6 0 Calma 7 Este 0 -- -- 94
2021-01-10 19:00:00 7.7 4 Este 5 Este 0 -- -- 92
2021-01-10 18:00:00 9.4 3 Sudeste 4 Sudeste 0 -- -- 84
2021-01-10 17:00:00 12 4 Oeste 16 Sudoeste 0 -- -- 76
2021-01-10 16:00:00 12.9 10 Sudoeste 21 Sudoeste 0 -- -- 70
2021-01-10 15:00:00 12.5 9 Oeste 21 Sudoeste 0 -- -- 75
2021-01-10 14:00:00 12.2 11 Sudoeste 23 Sudoeste 0 -- -- 77
2021-01-10 13:00:00 12.2 11 Sudoeste 29 Sudoeste 0 -- -- 74
2021-01-10 12:00:00 12.9 18 Sudoeste 33 Sudoeste 0 -- -- 74
2021-01-10 11:00:00 12.6 15 Sudoeste 33 Sudoeste 0 -- -- 76
2021-01-10 10:00:00 10.5 10 Sudoeste 21 Sudoeste 0 -- -- 90
2021-01-10 09:00:00 5.9 3 Sur 6 Sudoeste 0 -- -- 100
2021-01-10 08:00:00 4.5 2 Sudeste 8 Sur 0 -- -- 98
2021-01-10 07:00:00 3.7 4 Sur 7 Sur 0 -- -- 98
2021-01-10 06:00:00 3.4 3 Este 6 Sudeste 0 -- -- 97
2021-01-10 05:00:00 3.9 3 Sudeste 5 Este 0 -- -- 95
2021-01-10 04:00:00 5.1 0 Calma 5 Sur 0 -- -- 92
2021-01-10 03:00:00 7.5 2 Sur 13 Oeste 0 -- -- 90
2021-01-10 02:00:00 9 6 Oeste 13 Sudoeste 0 -- -- 91
2021-01-10 01:00:00 8.6 3 Oeste 7 Oeste 0 -- -- 91
2021-01-10 00:00:00 10.3 3 Oeste 19 Sudoeste 0 -- -- 84
2021-01-09 23:00:00 11.5 13 Sudoeste 35 Sudoeste 0 -- -- 80
2021-01-09 22:00:00 11.9 19 Sudoeste 37 Sudoeste 0 -- -- 78
2021-01-09 21:00:00 12.1 14 Sudoeste 38 Sudoeste 0 -- -- 82
2021-01-09 20:00:00 12.5 14 Sudoeste 30 Sudoeste 0 -- -- 84
2021-01-09 19:00:00 12.4 11 Sudoeste 29 Sudoeste 0 -- -- 88
2021-01-09 18:00:00 12.9 11 Sudoeste 23 Sudoeste 0 -- -- 87
2021-01-09 17:00:00 14 9 Sudoeste 24 Oeste 0 -- -- 88
2021-01-09 16:00:00 13.9 12 Sudoeste 30 Sudoeste 0 -- -- 90
2021-01-09 15:00:00 15 17 Sudoeste 32 Sudoeste 0 -- -- 87
2021-01-09 14:00:00 16.6 8 Sudeste 20 Sur 0 -- -- 84
2021-01-09 13:00:00 16.9 12 Este 21 Este 0 -- -- 86
2021-01-09 12:00:00 14.5 4 Nordeste 21 Este 0 -- -- 92
2021-01-09 11:00:00 13.4 10 Este 25 Nordeste 0 -- -- 96
2021-01-09 10:00:00 12 6 Nordeste 14 Este 0 -- -- 99
2021-01-09 09:00:00 10.7 5 Nordeste 17 Nordeste 0.2 -- -- 99
2021-01-09 08:00:00 9.8 4 Nordeste 21 Nordeste 0 -- -- 99
2021-01-09 07:00:00 9.6 9 Nordeste 23 Nordeste 0 -- -- 99
2021-01-09 06:00:00 9.2 9 Nordeste 22 Nordeste 0 -- -- 99
2021-01-09 05:00:00 9 8 Nordeste 20 Nordeste 0 -- -- 99
2021-01-09 04:00:00 8.8 10 Nordeste 22 Norte 0.4 -- -- 98
2021-01-09 03:00:00 9.3 6 Norte 30 Nordeste 0 -- -- 97
2021-01-09 02:00:00 9.3 10 Nordeste 31 Nordeste 0 -- -- 96
2021-01-09 01:00:00 9 13 Nordeste 27 Este 0.2 -- -- 98
2021-01-09 00:00:00 8.1 11 Nordeste 26 Nordeste 0 -- -- 97
2021-01-08 23:00:00 7.7 15 Nordeste 31 Nordeste 0 -- -- 98
2021-01-08 22:00:00 7.4 11 Nordeste 22 Norte 0.2 -- -- 97
2021-01-08 21:00:00 7.1 9 Norte 25 Nordeste 0.8 -- -- 95
2021-01-08 20:00:00 7.5 9 Nordeste 31 Nordeste 1 -- -- 94
2021-01-08 19:00:00 7.6 12 Nordeste 30 Norte 1.2 -- -- 95
2021-01-08 18:00:00 7.6 10 Nordeste 25 Nordeste 0.8 -- -- 94
2021-01-08 17:00:00 7.7 10 Nordeste 28 Nordeste 0.6 -- -- 93
2021-01-08 16:00:00 8 11 Nordeste 26 Norte 0.8 -- -- 90
2021-01-08 15:00:00 9.4 14 Nordeste 42 Nordeste 0 -- -- 77
2021-01-08 14:00:00 10.3 14 Nordeste 36 Nordeste 0 -- -- 71
2021-01-08 13:00:00 10.4 19 Nordeste 41 Nordeste 0 -- -- 68
2021-01-08 12:00:00 9.6 15 Nordeste 38 Nordeste 0 -- -- 71
2021-01-08 11:00:00 9.3 12 Nordeste 27 Nordeste 0 -- -- 78
2021-01-08 10:00:00 7.6 8 Nordeste 22 Nordeste 0 -- -- 89
2021-01-08 09:00:00 6.5 7 Nordeste 16 Nordeste 0.2 -- -- 96
2021-01-08 08:00:00 6.1 7 Nordeste 21 Nordeste 0 -- -- 96
2021-01-08 07:00:00 6.1 8 Nordeste 24 Nordeste 0.4 -- -- 96
2021-01-08 06:00:00 6.2 9 Nordeste 22 Nordeste 1.2 -- -- 96
2021-01-08 05:00:00 6.2 8 Nordeste 27 Nordeste 1.2 -- -- 95
2021-01-08 04:00:00 6.2 13 Nordeste 33 Nordeste 1.2 -- -- 93
2021-01-08 03:00:00 6.8 13 Nordeste 33 Nordeste 0.2 -- -- 84
2021-01-08 02:00:00 6.7 14 Nordeste 34 Norte 0 -- -- 88
2021-01-08 01:00:00 6.8 12 Nordeste 27 Norte 0 -- -- 92
2021-01-08 00:00:00 6.7 8 Nordeste 23 Norte 0 -- -- 92
2021-01-07 23:00:00 6.7 10 Nordeste 25 Nordeste 0.4 -- -- 94
2021-01-07 22:00:00 7 10 Nordeste 22 Nordeste 0 -- -- 94
2021-01-07 21:00:00 6.9 9 Nordeste 23 Nordeste 0.2 -- -- 96
2021-01-07 20:00:00 7 7 Nordeste 22 Nordeste 0.8 -- -- 96
2021-01-07 19:00:00 7.3 10 Nordeste 22 Nordeste 0.4 -- -- 97
2021-01-07 18:00:00 7.7 8 Nordeste 19 Nordeste 0.6 -- -- 96
2021-01-07 17:00:00 8 10 Nordeste 23 Norte 0.2 -- -- 95
2021-01-07 16:00:00 8.5 6 Nordeste 16 Nordeste 0.2 -- -- 93
2021-01-07 15:00:00 8.6 8 Nordeste 22 Nordeste 0.4 -- -- 93
2021-01-07 14:00:00 8.6 9 Nordeste 21 Nordeste 0 -- -- 92
2021-01-07 13:00:00 9 8 Nordeste 21 Norte 0 -- -- 86
2021-01-07 12:00:00 8.2 8 Nordeste 20 Nordeste 0 -- -- 90
2021-01-07 11:00:00 7 7 Norte 17 Norte 0 -- -- 95
2021-01-07 10:00:00 5.8 6 Nordeste 15 Nordeste 0 -- -- 96
2021-01-07 09:00:00 5.4 5 Nordeste 13 Norte 0.2 -- -- 97
2021-01-07 08:00:00 5.4 4 Nordeste 10 Nordeste 0.2 -- -- 96
2021-01-07 07:00:00 5.6 6 Nordeste 18 Norte 0 -- -- 95
2021-01-07 06:00:00 6 7 Norte 13 Nordeste 0.6 -- -- 94
2021-01-07 05:00:00 6.7 6 Nordeste 19 Nordeste 0.2 -- -- 87
2021-01-07 04:00:00 5.1 4 Nordeste 12 Nordeste 0 -- -- 91
2021-01-07 03:00:00 5.1 6 Nordeste 12 Nordeste 0 -- -- 90
2021-01-07 02:00:00 4.9 5 Nordeste 14 Nordeste 0 -- -- 92
2021-01-07 01:00:00 4.2 4 Norte 10 Nordeste 0 -- -- 95
2021-01-07 00:00:00 3.8 2 Nordeste 9 Nordeste 0 -- -- 97
2021-01-06 23:00:00 2.6 4 Este 9 Este 0 -- -- 97
2021-01-06 22:00:00 -0.3 2 Este 5 Nordeste 0 -- -- 93
2021-01-06 21:00:00 0.4 3 Este 5 Nordeste 0 -- -- 91
2021-01-06 20:00:00 1.6 0 Calma 5 Este 0 -- -- 88
2021-01-06 19:00:00 4.3 3 Este 8 Nordeste 0 -- -- 83
2021-01-06 18:00:00 7 3 Nordeste 8 Nordeste 0 -- -- 76
2021-01-06 17:00:00 9.4 3 Norte 10 Norte 0 -- -- 71
2021-01-06 16:00:00 10.4 4 Norte 17 Nordeste 0 -- -- 67
2021-01-06 15:00:00 12.8 4 Noroeste 10 Norte 0 -- -- 48
2021-01-06 14:00:00 13.1 4 Norte 13 Noroeste 0 -- -- 46
2021-01-06 13:00:00 12.5 4 Norte 10 Este 0 -- -- 58
2021-01-06 12:00:00 10.5 3 Nordeste 6 Norte 0 -- -- 86
2021-01-06 11:00:00 8.1 4 Norte 10 Nordeste 0 -- -- 93
2021-01-06 10:00:00 4.4 3 Nordeste 10 Nordeste 0.2 -- -- 94
2021-01-06 09:00:00 -0.6 5 Este 7 Este 0 -- -- 100
2021-01-06 08:00:00 -3.4 3 Este 8 Este 0 -- -- 97
2021-01-06 07:00:00 -3.3 4 Este 6 Este 0 -- -- 97
2021-01-06 06:00:00 -2.1 3 Nordeste 6 Este 0 -- -- 97
2021-01-06 05:00:00 -3 4 Este 6 Este 0 -- -- 98
2021-01-06 04:00:00 -3.7 3 Este 5 Este 0 -- -- 96
2021-01-06 03:00:00 -3 4 Este 6 Este 0 -- -- 96
2021-01-06 02:00:00 -2.4 3 Nordeste 6 Este 0 -- -- 95
2021-01-06 01:00:00 -1.3 4 Este 8 Este 0 -- -- 96
2021-01-06 00:00:00 -2.4 3 Este 4 Este 0 -- -- 95
2021-01-05 23:00:00 -1.6 2 Este 6 Este 0 -- -- 95
2021-01-05 22:00:00 -0.8 5 Este 8 Este 0 -- -- 95
2021-01-05 21:00:00 -1.2 3 Este 5 Este 0 -- -- 92
2021-01-05 20:00:00 -0.1 0 Calma 4 Este 0 -- -- 88
2021-01-05 19:00:00 2.1 0 Calma 4 Norte 0 -- -- 81
2021-01-05 18:00:00 6.6 3 Oeste 13 Noroeste 0 -- -- 68
2021-01-05 17:00:00 9.9 9 Noroeste 22 Noroeste 0 -- -- 57
2021-01-05 16:00:00 11.2 12 Noroeste 24 Noroeste 0 -- -- 55
2021-01-05 15:00:00 11.3 10 Noroeste 23 Noroeste 0 -- -- 58
2021-01-05 14:00:00 11.8 11 Noroeste 30 Noroeste 0 -- -- 54
2021-01-05 13:00:00 11.5 15 Noroeste 29 Oeste 0 -- -- 57
2021-01-05 12:00:00 10.5 13 Noroeste 25 Noroeste 0 -- -- 62
2021-01-05 11:00:00 8.1 3 Sudoeste 5 Sudoeste 0 -- -- 87
2021-01-05 10:00:00 4.7 3 Norte 8 Norte 0 -- -- 100
2021-01-05 09:00:00 2.2 2 Este 12 Sudoeste 0.6 -- -- 98
2021-01-05 08:00:00 0.9 2 Nordeste 12 Norte 0 -- -- 99
2021-01-05 07:00:00 -0.9 3 Nordeste 14 Norte 0 -- -- 99
2021-01-05 06:00:00 -1.9 4 Nordeste 6 Este 0 -- -- 97
2021-01-05 05:00:00 -1.9 2 Este 5 Este 0 -- -- 95
2021-01-05 04:00:00 -1.3 2 Este 3 Este 0 -- -- 93
2021-01-05 03:00:00 0.6 2 Este 8 Este 0 -- -- 91
2021-01-05 02:00:00 3.1 3 Sudeste 22 Noroeste 0 -- -- 91
2021-01-05 01:00:00 2 7 Oeste 22 Noroeste 0 -- -- 100
2021-01-05 00:00:00 0.3 0 Calma 5 Este 0 -- -- 96
2021-01-04 23:00:00 1.2 3 Este 5 Este 0 -- -- 96
2021-01-04 22:00:00 1.7 3 Este 4 Este 0 -- -- 96
2021-01-04 21:00:00 2 0 Calma 5 Sudoeste 0 -- -- 95
2021-01-04 20:00:00 1.7 0 Calma 3 Este 0 -- -- 91
2021-01-04 19:00:00 3.1 0 Calma 3 Noroeste 0 -- -- 87
2021-01-04 18:00:00 6.3 0 Calma 21 Noroeste 0 -- -- 77
2021-01-04 17:00:00 10.3 11 Oeste 24 Oeste 0 -- -- 66
2021-01-04 16:00:00 10.6 13 Oeste 36 Oeste 0 -- -- 64
2021-01-04 15:00:00 11.8 18 Sudoeste 36 Oeste 0 -- -- 59
2021-01-04 14:00:00 10.8 7 Oeste 36 Sudoeste 0 -- -- 67
2021-01-04 13:00:00 12.6 17 Sudoeste 32 Oeste 0 -- -- 57
2021-01-04 12:00:00 11.7 14 Oeste 26 Oeste 0 -- -- 70
2021-01-04 11:00:00 8.1 3 Sudoeste 6 Sudoeste 0 -- -- 96
2021-01-04 10:00:00 3.4 3 Nordeste 7 Este 0 -- -- 99
2021-01-04 09:00:00 1.9 5 Este 8 Este 0 -- -- 99
2021-01-04 08:00:00 0.8 4 Este 6 Este 0 -- -- 97
2021-01-04 07:00:00 2.5 3 Sudeste 12 Sudoeste 1.4 -- -- 96
2021-01-04 06:00:00 1.9 7 Sudoeste 18 Sudoeste 0 -- -- 100
2021-01-04 05:00:00 -0.2 3 Este 8 Este 0 -- -- 96
2021-01-04 04:00:00 0.6 5 Este 9 Noroeste 0 -- -- 97
2021-01-04 03:00:00 0.8 3 Este 8 Sudeste 0 -- -- 96
2021-01-04 02:00:00 1.3 5 Este 7 Este 0 -- -- 96
2021-01-04 01:00:00 0.8 5 Este 7 Este 0 -- -- 97
2021-01-04 00:00:00 0.2 4 Este 6 Este 0 -- -- 97
2021-01-03 23:00:00 0.1 3 Este 5 Este 0 -- -- 95
2021-01-03 22:00:00 1.3 3 Este 5 Este 0 -- -- 95
2021-01-03 21:00:00 0.6 3 Este 5 Este 0 -- -- 94
2021-01-03 20:00:00 1.4 0 Calma 4 Este 0 -- -- 92
2021-01-03 19:00:00 2.4 3 Este 5 Sur 0 -- -- 88
2021-01-03 18:00:00 4.9 0 Calma 6 Norte 0 -- -- 80
2021-01-03 17:00:00 9.5 4 Sudoeste 19 Sudoeste 0 -- -- 64
2021-01-03 16:00:00 10.8 6 Noroeste 20 Norte 0 -- -- 55
2021-01-03 15:00:00 9.9 10 Noroeste 21 Oeste 0 -- -- 62
2021-01-03 14:00:00 11 8 Oeste 23 Sudoeste 0 -- -- 54
2021-01-03 13:00:00 11.5 6 Noroeste 17 Noroeste 0 -- -- 57
2021-01-03 12:00:00 9.8 5 Oeste 11 Sudoeste 0 -- -- 68
2021-01-03 11:00:00 8.7 0 Calma 5 Nordeste 0 -- -- 80
2021-01-03 10:00:00 5.7 2 Nordeste 5 Oeste 0 -- -- 92
2021-01-03 09:00:00 1.3 0 Calma 6 Noroeste 0.2 -- -- 95
2021-01-03 08:00:00 2.4 2 Nordeste 17 Nordeste 0 -- -- 94
2021-01-03 07:00:00 2.7 8 Nordeste 18 Nordeste 0 -- -- 95
2021-01-03 06:00:00 3.3 5 Nordeste 21 Nordeste 0 -- -- 93
2021-01-03 05:00:00 4 5 Nordeste 15 Norte 0 -- -- 98
2021-01-03 04:00:00 1.2 5 Nordeste 10 Nordeste 0 -- -- 100
2021-01-03 03:00:00 -0.3 6 Este 9 Este 0 -- -- 99
2021-01-03 02:00:00 -0.8 0 Calma 6 Sudoeste 0 -- -- 98
2021-01-03 01:00:00 -0.5 4 Este 5 Este 0 -- -- 98
2021-01-03 00:00:00 -0.1 3 Este 5 Oeste 0 -- -- 97
2021-01-02 23:00:00 0.8 5 Este 7 Este 0 -- -- 98
2021-01-02 22:00:00 0.4 4 Este 5 Este 0 -- -- 97
2021-01-02 21:00:00 1 3 Este 4 Este 0 -- -- 95
2021-01-02 20:00:00 2.2 4 Este 6 Este 0 -- -- 96
2021-01-02 19:00:00 2.2 2 Norte 6 Noroeste 0 -- -- 93
2021-01-02 18:00:00 3.9 2 Este 33 Sudoeste 0.4 -- -- 90
2021-01-02 17:00:00 5.9 6 Sur 17 Sur 0 -- -- 82
2021-01-02 16:00:00 7.7 3 Noroeste 5 Noroeste 0 -- -- 82
2021-01-02 15:00:00 7.7 2 Oeste 15 Noroeste 0 -- -- 79
2021-01-02 14:00:00 7.1 4 Sudoeste 17 Sudoeste 0.2 -- -- 86